sensor_id;sensor_type;location;lat;lon;timestamp;P1;durP1;ratioP1;P2;durP2;ratioP2
39020;SDS011;25188;51.958;5.842;2023-03-01T00:01:23;5.17;;;2.73;;
39020;SDS011;25188;51.958;5.842;2023-03-01T00:03:50;7.03;;;2.90;;
39020;SDS011;25188;51.958;5.842;2023-03-01T00:06:17;7.97;;;3.37;;
39020;SDS011;25188;51.958;5.842;2023-03-01T00:08:43;6.03;;;3.00;;
39020;SDS011;25188;51.958;5.842;2023-03-01T00:13:43;5.68;;;2.70;;
39020;SDS011;25188;51.958;5.842;2023-03-01T00:16:11;5.90;;;3.03;;
39020;SDS011;25188;51.958;5.842;2023-03-01T00:18:39;7.20;;;3.10;;
39020;SDS011;25188;51.958;5.842;2023-03-01T00:21:04;5.93;;;2.80;;
39020;SDS011;25188;51.958;5.842;2023-03-01T00:23:31;11.63;;;2.90;;
39020;SDS011;25188;51.958;5.842;2023-03-01T00:25:58;6.43;;;2.97;;
39020;SDS011;25188;51.958;5.842;2023-03-01T00:28:24;8.00;;;2.87;;
39020;SDS011;25188;51.958;5.842;2023-03-01T00:30:49;5.57;;;2.50;;
39020;SDS011;25188;51.958;5.842;2023-03-01T00:33:15;5.87;;;3.13;;
39020;SDS011;25188;51.958;5.842;2023-03-01T00:35:41;6.33;;;2.57;;
39020;SDS011;25188;51.958;5.842;2023-03-01T00:38:07;5.93;;;3.03;;
39020;SDS011;25188;51.958;5.842;2023-03-01T00:40:33;6.30;;;3.00;;
39020;SDS011;25188;51.958;5.842;2023-03-01T00:43:00;6.47;;;3.30;;
39020;SDS011;25188;51.958;5.842;2023-03-01T00:45:26;7.57;;;3.40;;
39020;SDS011;25188;51.958;5.842;2023-03-01T00:47:52;5.33;;;2.63;;
39020;SDS011;25188;51.958;5.842;2023-03-01T00:50:18;7.33;;;2.73;;
39020;SDS011;25188;51.958;5.842;2023-03-01T00:52:44;6.73;;;3.10;;
39020;SDS011;25188;51.958;5.842;2023-03-01T00:55:10;7.20;;;3.40;;
39020;SDS011;25188;51.958;5.842;2023-03-01T00:57:37;6.67;;;3.13;;
39020;SDS011;25188;51.958;5.842;2023-03-01T01:00:06;7.33;;;3.50;;
39020;SDS011;25188;51.958;5.842;2023-03-01T01:02:32;9.20;;;3.30;;
39020;SDS011;25188;51.958;5.842;2023-03-01T01:04:58;6.97;;;3.37;;
39020;SDS011;25188;51.958;5.842;2023-03-01T01:07:24;7.87;;;3.23;;
39020;SDS011;25188;51.958;5.842;2023-03-01T01:09:50;7.47;;;3.13;;
39020;SDS011;25188;51.958;5.842;2023-03-01T01:12:16;7.23;;;3.20;;
39020;SDS011;25188;51.958;5.842;2023-03-01T01:14:41;7.00;;;3.33;;
39020;SDS011;25188;51.958;5.842;2023-03-01T01:17:07;7.30;;;2.77;;
39020;SDS011;25188;51.958;5.842;2023-03-01T01:19:33;7.67;;;3.40;;
39020;SDS011;25188;51.958;5.842;2023-03-01T01:21:58;7.70;;;3.60;;
39020;SDS011;25188;51.958;5.842;2023-03-01T01:24:24;6.90;;;3.07;;
39020;SDS011;25188;51.958;5.842;2023-03-01T01:26:49;7.57;;;3.70;;
39020;SDS011;25188;51.958;5.842;2023-03-01T01:29:15;6.80;;;3.17;;
39020;SDS011;25188;51.958;5.842;2023-03-01T01:31:41;10.80;;;3.80;;
39020;SDS011;25188;51.958;5.842;2023-03-01T01:34:08;9.00;;;3.80;;
39020;SDS011;25188;51.958;5.842;2023-03-01T01:36:39;8.13;;;3.90;;
39020;SDS011;25188;51.958;5.842;2023-03-01T01:39:05;9.40;;;4.27;;
39020;SDS011;25188;51.958;5.842;2023-03-01T01:41:31;9.40;;;5.10;;
39020;SDS011;25188;51.958;5.842;2023-03-01T01:44:10;10.20;;;4.40;;
39020;SDS011;25188;51.958;5.842;2023-03-01T01:51:44;11.30;;;5.60;;
39020;SDS011;25188;51.958;5.842;2023-03-01T01:54:27;9.53;;;5.27;;
39020;SDS011;25188;51.958;5.842;2023-03-01T01:57:01;10.10;;;5.43;;
39020;SDS011;25188;51.958;5.842;2023-03-01T01:59:28;12.03;;;5.10;;
39020;SDS011;25188;51.958;5.842;2023-03-01T02:01:57;10.23;;;5.37;;
39020;SDS011;25188;51.958;5.842;2023-03-01T02:04:26;9.77;;;5.23;;
39020;SDS011;25188;51.958;5.842;2023-03-01T02:09:49;9.40;;;5.13;;
39020;SDS011;25188;51.958;5.842;2023-03-01T02:12:18;10.03;;;5.03;;
39020;SDS011;25188;51.958;5.842;2023-03-01T02:14:46;9.20;;;4.97;;
39020;SDS011;25188;51.958;5.842;2023-03-01T02:17:12;13.63;;;5.57;;
39020;SDS011;25188;51.958;5.842;2023-03-01T02:22:39;11.70;;;5.27;;
39020;SDS011;25188;51.958;5.842;2023-03-01T02:27:47;9.40;;;5.03;;
39020;SDS011;25188;51.958;5.842;2023-03-01T02:30:21;10.17;;;4.10;;
39020;SDS011;25188;51.958;5.842;2023-03-01T02:32:49;8.23;;;4.03;;
39020;SDS011;25188;51.958;5.842;2023-03-01T02:35:17;6.93;;;4.03;;
39020;SDS011;25188;51.958;5.842;2023-03-01T02:37:44;8.47;;;4.17;;
39020;SDS011;25188;51.958;5.842;2023-03-01T02:40:14;10.90;;;4.33;;
39020;SDS011;25188;51.958;5.842;2023-03-01T02:42:47;7.60;;;3.87;;
39020;SDS011;25188;51.958;5.842;2023-03-01T02:45:16;10.00;;;4.63;;
39020;SDS011;25188;51.958;5.842;2023-03-01T02:47:42;6.90;;;4.20;;
39020;SDS011;25188;51.958;5.842;2023-03-01T02:53:21;8.53;;;4.27;;
39020;SDS011;25188;51.958;5.842;2023-03-01T02:56:08;8.20;;;4.20;;
39020;SDS011;25188;51.958;5.842;2023-03-01T02:58:38;9.40;;;3.93;;
39020;SDS011;25188;51.958;5.842;2023-03-01T03:01:13;9.27;;;4.13;;
39020;SDS011;25188;51.958;5.842;2023-03-01T03:03:40;8.70;;;4.27;;
39020;SDS011;25188;51.958;5.842;2023-03-01T03:06:06;7.57;;;3.63;;
39020;SDS011;25188;51.958;5.842;2023-03-01T03:08:33;9.83;;;4.37;;
39020;SDS011;25188;51.958;5.842;2023-03-01T03:10:58;9.47;;;3.83;;
39020;SDS011;25188;51.958;5.842;2023-03-01T03:13:24;8.63;;;4.47;;
39020;SDS011;25188;51.958;5.842;2023-03-01T03:15:53;7.83;;;4.03;;
39020;SDS011;25188;51.958;5.842;2023-03-01T03:18:20;7.07;;;3.53;;
39020;SDS011;25188;51.958;5.842;2023-03-01T03:20:46;7.77;;;3.73;;
39020;SDS011;25188;51.958;5.842;2023-03-01T03:23:13;7.77;;;4.10;;
39020;SDS011;25188;51.958;5.842;2023-03-01T03:25:39;6.70;;;3.40;;
39020;SDS011;25188;51.958;5.842;2023-03-01T03:28:05;9.37;;;3.80;;
39020;SDS011;25188;51.958;5.842;2023-03-01T03:30:35;7.27;;;3.63;;
39020;SDS011;25188;51.958;5.842;2023-03-01T03:33:06;9.00;;;4.07;;
39020;SDS011;25188;51.958;5.842;2023-03-01T03:35:34;7.80;;;4.37;;
39020;SDS011;25188;51.958;5.842;2023-03-01T03:38:05;9.20;;;4.27;;
39020;SDS011;25188;51.958;5.842;2023-03-01T03:40:41;8.53;;;3.70;;
39020;SDS011;25188;51.958;5.842;2023-03-01T03:43:14;7.07;;;3.40;;
39020;SDS011;25188;51.958;5.842;2023-03-01T03:45:43;6.97;;;3.33;;
39020;SDS011;25188;51.958;5.842;2023-03-01T03:48:09;9.20;;;4.10;;
39020;SDS011;25188;51.958;5.842;2023-03-01T03:50:36;6.57;;;3.53;;
39020;SDS011;25188;51.958;5.842;2023-03-01T03:53:04;8.73;;;4.03;;
39020;SDS011;25188;51.958;5.842;2023-03-01T03:55:32;7.73;;;3.57;;
39020;SDS011;25188;51.958;5.842;2023-03-01T03:57:59;8.17;;;3.70;;
39020;SDS011;25188;51.958;5.842;2023-03-01T04:00:32;9.00;;;4.07;;
39020;SDS011;25188;51.958;5.842;2023-03-01T04:02:59;8.87;;;3.63;;
39020;SDS011;25188;51.958;5.842;2023-03-01T04:05:26;7.50;;;3.80;;
39020;SDS011;25188;51.958;5.842;2023-03-01T04:07:52;8.37;;;4.17;;
39020;SDS011;25188;51.958;5.842;2023-03-01T04:10:26;8.90;;;3.63;;
39020;SDS011;25188;51.958;5.842;2023-03-01T04:12:53;7.93;;;3.57;;
39020;SDS011;25188;51.958;5.842;2023-03-01T04:15:21;8.43;;;4.10;;
39020;SDS011;25188;51.958;5.842;2023-03-01T04:17:49;9.20;;;3.97;;
39020;SDS011;25188;51.958;5.842;2023-03-01T04:20:17;7.93;;;3.83;;
39020;SDS011;25188;51.958;5.842;2023-03-01T04:22:49;7.33;;;3.90;;
39020;SDS011;25188;51.958;5.842;2023-03-01T04:25:17;7.93;;;3.87;;
39020;SDS011;25188;51.958;5.842;2023-03-01T04:27:42;9.33;;;3.77;;
39020;SDS011;25188;51.958;5.842;2023-03-01T04:30:08;9.07;;;3.50;;
39020;SDS011;25188;51.958;5.842;2023-03-01T04:32:34;7.50;;;3.70;;
39020;SDS011;25188;51.958;5.842;2023-03-01T04:35:00;8.87;;;3.63;;
39020;SDS011;25188;51.958;5.842;2023-03-01T04:37:26;7.73;;;3.97;;
39020;SDS011;25188;51.958;5.842;2023-03-01T04:39:52;7.23;;;3.87;;
39020;SDS011;25188;51.958;5.842;2023-03-01T04:42:18;8.13;;;4.07;;
39020;SDS011;25188;51.958;5.842;2023-03-01T04:44:44;8.47;;;3.80;;
39020;SDS011;25188;51.958;5.842;2023-03-01T04:47:10;7.30;;;3.20;;
39020;SDS011;25188;51.958;5.842;2023-03-01T04:49:37;8.93;;;3.97;;
39020;SDS011;25188;51.958;5.842;2023-03-01T04:52:03;8.40;;;4.10;;
39020;SDS011;25188;51.958;5.842;2023-03-01T04:54:32;9.17;;;3.80;;
39020;SDS011;25188;51.958;5.842;2023-03-01T04:56:59;8.13;;;3.40;;
39020;SDS011;25188;51.958;5.842;2023-03-01T04:59:26;7.90;;;3.90;;
39020;SDS011;25188;51.958;5.842;2023-03-01T05:01:52;9.33;;;4.03;;
39020;SDS011;25188;51.958;5.842;2023-03-01T05:04:22;9.40;;;4.17;;
39020;SDS011;25188;51.958;5.842;2023-03-01T05:06:48;7.77;;;3.90;;
39020;SDS011;25188;51.958;5.842;2023-03-01T05:09:15;6.83;;;3.83;;
39020;SDS011;25188;51.958;5.842;2023-03-01T05:11:40;6.87;;;2.93;;
39020;SDS011;25188;51.958;5.842;2023-03-01T05:14:06;8.57;;;3.23;;
39020;SDS011;25188;51.958;5.842;2023-03-01T05:16:34;7.23;;;3.10;;
39020;SDS011;25188;51.958;5.842;2023-03-01T05:19:01;7.80;;;3.37;;
39020;SDS011;25188;51.958;5.842;2023-03-01T05:21:36;8.03;;;3.23;;
39020;SDS011;25188;51.958;5.842;2023-03-01T05:24:24;7.97;;;3.73;;
39020;SDS011;25188;51.958;5.842;2023-03-01T05:26:50;9.83;;;3.83;;
39020;SDS011;25188;51.958;5.842;2023-03-01T05:29:19;7.93;;;3.33;;
39020;SDS011;25188;51.958;5.842;2023-03-01T05:31:51;8.77;;;3.80;;
39020;SDS011;25188;51.958;5.842;2023-03-01T05:34:27;7.03;;;3.00;;
39020;SDS011;25188;51.958;5.842;2023-03-01T05:36:55;7.27;;;3.40;;
39020;SDS011;25188;51.958;5.842;2023-03-01T05:39:21;5.97;;;2.90;;
39020;SDS011;25188;51.958;5.842;2023-03-01T05:41:48;7.93;;;3.83;;
39020;SDS011;25188;51.958;5.842;2023-03-01T05:44:17;8.50;;;3.37;;
39020;SDS011;25188;51.958;5.842;2023-03-01T05:46:43;8.13;;;3.30;;
39020;SDS011;25188;51.958;5.842;2023-03-01T05:49:09;6.67;;;3.40;;
39020;SDS011;25188;51.958;5.842;2023-03-01T05:51:35;9.73;;;3.80;;
39020;SDS011;25188;51.958;5.842;2023-03-01T05:54:01;12.57;;;4.40;;
39020;SDS011;25188;51.958;5.842;2023-03-01T05:56:27;6.40;;;2.83;;
39020;SDS011;25188;51.958;5.842;2023-03-01T05:58:54;10.03;;;3.53;;
39020;SDS011;25188;51.958;5.842;2023-03-01T06:01:19;8.07;;;3.77;;
39020;SDS011;25188;51.958;5.842;2023-03-01T06:03:45;7.73;;;3.40;;
39020;SDS011;25188;51.958;5.842;2023-03-01T06:06:10;7.20;;;3.67;;
39020;SDS011;25188;51.958;5.842;2023-03-01T06:08:36;7.67;;;3.70;;
39020;SDS011;25188;51.958;5.842;2023-03-01T06:11:02;11.00;;;4.00;;
39020;SDS011;25188;51.958;5.842;2023-03-01T06:13:28;9.23;;;3.30;;
39020;SDS011;25188;51.958;5.842;2023-03-01T06:15:54;14.33;;;3.93;;
39020;SDS011;25188;51.958;5.842;2023-03-01T06:18:21;7.20;;;3.80;;
39020;SDS011;25188;51.958;5.842;2023-03-01T06:20:52;11.70;;;4.60;;
39020;SDS011;25188;51.958;5.842;2023-03-01T06:23:21;8.85;;;3.85;;
39020;SDS011;25188;51.958;5.842;2023-03-01T06:25:48;10.77;;;3.97;;
39020;SDS011;25188;51.958;5.842;2023-03-01T06:28:13;12.13;;;4.13;;
39020;SDS011;25188;51.958;5.842;2023-03-01T06:30:39;13.13;;;5.47;;
39020;SDS011;25188;51.958;5.842;2023-03-01T06:33:04;13.10;;;4.50;;
39020;SDS011;25188;51.958;5.842;2023-03-01T06:35:30;9.33;;;4.47;;
39020;SDS011;25188;51.958;5.842;2023-03-01T06:37:56;9.53;;;4.17;;
39020;SDS011;25188;51.958;5.842;2023-03-01T06:40:24;18.93;;;5.23;;
39020;SDS011;25188;51.958;5.842;2023-03-01T06:42:50;8.10;;;3.93;;
39020;SDS011;25188;51.958;5.842;2023-03-01T06:45:17;9.07;;;4.03;;
39020;SDS011;25188;51.958;5.842;2023-03-01T06:47:43;6.13;;;3.60;;
39020;SDS011;25188;51.958;5.842;2023-03-01T06:50:09;9.00;;;3.90;;
39020;SDS011;25188;51.958;5.842;2023-03-01T06:52:35;8.80;;;3.90;;
39020;SDS011;25188;51.958;5.842;2023-03-01T06:55:02;10.13;;;3.47;;
39020;SDS011;25188;51.958;5.842;2023-03-01T06:57:28;9.73;;;4.50;;
39020;SDS011;25188;51.958;5.842;2023-03-01T06:59:54;8.07;;;4.00;;
39020;SDS011;25188;51.958;5.842;2023-03-01T07:02:20;9.67;;;4.07;;
39020;SDS011;25188;51.958;5.842;2023-03-01T07:04:46;7.80;;;4.03;;
39020;SDS011;25188;51.958;5.842;2023-03-01T07:07:14;9.37;;;4.60;;
39020;SDS011;25188;51.958;5.842;2023-03-01T07:09:40;11.83;;;4.13;;
39020;SDS011;25188;51.958;5.842;2023-03-01T07:12:06;10.93;;;4.67;;
39020;SDS011;25188;51.958;5.842;2023-03-01T07:14:32;11.67;;;4.50;;
39020;SDS011;25188;51.958;5.842;2023-03-01T07:16:58;11.53;;;5.13;;
39020;SDS011;25188;51.958;5.842;2023-03-01T07:19:24;8.83;;;4.37;;
39020;SDS011;25188;51.958;5.842;2023-03-01T07:21:49;11.03;;;4.23;;
39020;SDS011;25188;51.958;5.842;2023-03-01T07:24:15;8.80;;;4.30;;
39020;SDS011;25188;51.958;5.842;2023-03-01T07:26:41;12.30;;;4.70;;
39020;SDS011;25188;51.958;5.842;2023-03-01T07:29:07;9.77;;;4.47;;
39020;SDS011;25188;51.958;5.842;2023-03-01T07:31:34;9.80;;;4.07;;
39020;SDS011;25188;51.958;5.842;2023-03-01T07:34:00;9.53;;;4.30;;
39020;SDS011;25188;51.958;5.842;2023-03-01T07:36:26;9.85;;;4.13;;
39020;SDS011;25188;51.958;5.842;2023-03-01T07:38:52;10.93;;;3.90;;
39020;SDS011;25188;51.958;5.842;2023-03-01T07:41:17;9.77;;;4.43;;
39020;SDS011;25188;51.958;5.842;2023-03-01T07:43:43;8.07;;;4.10;;
39020;SDS011;25188;51.958;5.842;2023-03-01T07:46:09;10.70;;;4.63;;
39020;SDS011;25188;51.958;5.842;2023-03-01T07:48:34;8.40;;;4.00;;
39020;SDS011;25188;51.958;5.842;2023-03-01T07:51:00;10.43;;;4.57;;
39020;SDS011;25188;51.958;5.842;2023-03-01T07:53:27;8.40;;;4.10;;
39020;SDS011;25188;51.958;5.842;2023-03-01T07:56:27;9.20;;;4.60;;
39020;SDS011;25188;51.958;5.842;2023-03-01T07:58:46;8.43;;;3.50;;
39020;SDS011;25188;51.958;5.842;2023-03-01T08:01:15;9.13;;;4.03;;
39020;SDS011;25188;51.958;5.842;2023-03-01T08:03:43;9.03;;;4.53;;
39020;SDS011;25188;51.958;5.842;2023-03-01T08:06:10;9.70;;;4.40;;
39020;SDS011;25188;51.958;5.842;2023-03-01T08:08:37;11.83;;;4.20;;
39020;SDS011;25188;51.958;5.842;2023-03-01T08:11:03;9.27;;;4.37;;
39020;SDS011;25188;51.958;5.842;2023-03-01T08:13:31;8.90;;;3.93;;
39020;SDS011;25188;51.958;5.842;2023-03-01T08:16:03;9.43;;;4.23;;
39020;SDS011;25188;51.958;5.842;2023-03-01T08:18:30;8.88;;;4.32;;
39020;SDS011;25188;51.958;5.842;2023-03-01T08:21:03;7.53;;;3.57;;
39020;SDS011;25188;51.958;5.842;2023-03-01T08:23:30;7.82;;;3.97;;
39020;SDS011;25188;51.958;5.842;2023-03-01T08:26:02;12.67;;;5.30;;
39020;SDS011;25188;51.958;5.842;2023-03-01T08:28:35;8.33;;;3.90;;
39020;SDS011;25188;51.958;5.842;2023-03-01T08:31:02;8.93;;;4.70;;
39020;SDS011;25188;51.958;5.842;2023-03-01T08:33:28;8.50;;;4.00;;
39020;SDS011;25188;51.958;5.842;2023-03-01T08:36:01;9.70;;;4.93;;
39020;SDS011;25188;51.958;5.842;2023-03-01T08:38:31;10.10;;;4.37;;
39020;SDS011;25188;51.958;5.842;2023-03-01T08:41:01;11.70;;;4.73;;
39020;SDS011;25188;51.958;5.842;2023-03-01T08:43:27;9.13;;;3.93;;
39020;SDS011;25188;51.958;5.842;2023-03-01T08:45:53;13.83;;;4.50;;
39020;SDS011;25188;51.958;5.842;2023-03-01T08:48:19;10.37;;;4.43;;
39020;SDS011;25188;51.958;5.842;2023-03-01T08:50:44;8.33;;;3.83;;
39020;SDS011;25188;51.958;5.842;2023-03-01T08:53:10;9.20;;;4.40;;
39020;SDS011;25188;51.958;5.842;2023-03-01T08:55:36;12.30;;;4.10;;
39020;SDS011;25188;51.958;5.842;2023-03-01T08:58:01;11.57;;;4.27;;
39020;SDS011;25188;51.958;5.842;2023-03-01T09:00:27;7.50;;;3.53;;
39020;SDS011;25188;51.958;5.842;2023-03-01T09:02:53;9.37;;;4.50;;
39020;SDS011;25188;51.958;5.842;2023-03-01T09:05:18;8.30;;;3.37;;
39020;SDS011;25188;51.958;5.842;2023-03-01T09:07:44;8.37;;;3.57;;
39020;SDS011;25188;51.958;5.842;2023-03-01T09:10:10;11.97;;;3.47;;
39020;SDS011;25188;51.958;5.842;2023-03-01T09:12:36;8.57;;;4.00;;
39020;SDS011;25188;51.958;5.842;2023-03-01T09:15:01;7.07;;;3.70;;
39020;SDS011;25188;51.958;5.842;2023-03-01T09:17:27;9.87;;;4.07;;
39020;SDS011;25188;51.958;5.842;2023-03-01T09:19:53;6.33;;;3.10;;
39020;SDS011;25188;51.958;5.842;2023-03-01T09:22:19;7.30;;;3.60;;
39020;SDS011;25188;51.958;5.842;2023-03-01T09:24:44;10.87;;;3.77;;
39020;SDS011;25188;51.958;5.842;2023-03-01T09:27:10;11.67;;;3.70;;
39020;SDS011;25188;51.958;5.842;2023-03-01T09:29:37;9.30;;;3.00;;
39020;SDS011;25188;51.958;5.842;2023-03-01T09:32:03;11.07;;;3.60;;
39020;SDS011;25188;51.958;5.842;2023-03-01T09:34:29;7.10;;;3.07;;
39020;SDS011;25188;51.958;5.842;2023-03-01T09:36:56;6.53;;;3.30;;
39020;SDS011;25188;51.958;5.842;2023-03-01T09:39:22;8.70;;;3.67;;
39020;SDS011;25188;51.958;5.842;2023-03-01T09:41:49;10.57;;;3.67;;
39020;SDS011;25188;51.958;5.842;2023-03-01T09:44:36;8.83;;;3.73;;
39020;SDS011;25188;51.958;5.842;2023-03-01T09:47:16;9.23;;;3.57;;
39020;SDS011;25188;51.958;5.842;2023-03-01T09:49:45;9.53;;;3.50;;
39020;SDS011;25188;51.958;5.842;2023-03-01T09:52:25;8.27;;;3.93;;
39020;SDS011;25188;51.958;5.842;2023-03-01T09:55:14;6.73;;;3.77;;
39020;SDS011;25188;51.958;5.842;2023-03-01T10:00:16;8.77;;;4.50;;
39020;SDS011;25188;51.958;5.842;2023-03-01T10:02:57;7.87;;;4.20;;
39020;SDS011;25188;51.958;5.842;2023-03-01T10:06:10;8.68;;;4.20;;
39020;SDS011;25188;51.958;5.842;2023-03-01T10:10:57;10.27;;;4.60;;
39020;SDS011;25188;51.958;5.842;2023-03-01T10:16:15;5.93;;;3.47;;
39020;SDS011;25188;51.958;5.842;2023-03-01T10:18:46;5.97;;;3.17;;
39020;SDS011;25188;51.958;5.842;2023-03-01T10:21:18;5.70;;;3.10;;
39020;SDS011;25188;51.958;5.842;2023-03-01T10:23:45;6.47;;;2.90;;
39020;SDS011;25188;51.958;5.842;2023-03-01T10:31:25;4.82;;;2.97;;
39020;SDS011;25188;51.958;5.842;2023-03-01T10:34:02;4.53;;;2.35;;
39020;SDS011;25188;51.958;5.842;2023-03-01T10:36:33;6.55;;;2.28;;
39020;SDS011;25188;51.958;5.842;2023-03-01T10:39:00;5.95;;;2.00;;
39020;SDS011;25188;51.958;5.842;2023-03-01T10:41:53;4.60;;;2.00;;
39020;SDS011;25188;51.958;5.842;2023-03-01T10:44:46;5.38;;;2.60;;
39020;SDS011;25188;51.958;5.842;2023-03-01T10:47:15;5.68;;;2.08;;
39020;SDS011;25188;51.958;5.842;2023-03-01T10:49:51;4.40;;;2.17;;
39020;SDS011;25188;51.958;5.842;2023-03-01T10:52:32;5.68;;;1.95;;
39020;SDS011;25188;51.958;5.842;2023-03-01T10:58:06;4.00;;;2.08;;
39020;SDS011;25188;51.958;5.842;2023-03-01T11:00:46;4.03;;;1.97;;
39020;SDS011;25188;51.958;5.842;2023-03-01T11:03:40;5.05;;;2.08;;
39020;SDS011;25188;51.958;5.842;2023-03-01T11:06:12;3.50;;;1.85;;
39020;SDS011;25188;51.958;5.842;2023-03-01T11:08:49;3.95;;;1.70;;
39020;SDS011;25188;51.958;5.842;2023-03-01T11:11:32;4.95;;;2.00;;
39020;SDS011;25188;51.958;5.842;2023-03-01T11:14:00;4.53;;;2.00;;
39020;SDS011;25188;51.958;5.842;2023-03-01T11:16:35;3.83;;;1.63;;
39020;SDS011;25188;51.958;5.842;2023-03-01T11:21:34;2.83;;;1.48;;
39020;SDS011;25188;51.958;5.842;2023-03-01T11:24:04;3.83;;;1.83;;
39020;SDS011;25188;51.958;5.842;2023-03-01T11:26:36;3.78;;;1.70;;
39020;SDS011;25188;51.958;5.842;2023-03-01T11:29:07;3.00;;;1.35;;
39020;SDS011;25188;51.958;5.842;2023-03-01T11:31:41;4.50;;;2.03;;
39020;SDS011;25188;51.958;5.842;2023-03-01T11:34:12;3.88;;;1.70;;
39020;SDS011;25188;51.958;5.842;2023-03-01T11:36:47;4.30;;;2.33;;
39020;SDS011;25188;51.958;5.842;2023-03-01T11:39:31;4.45;;;2.00;;
39020;SDS011;25188;51.958;5.842;2023-03-01T11:42:06;4.55;;;1.70;;
39020;SDS011;25188;51.958;5.842;2023-03-01T11:44:40;6.18;;;1.90;;
39020;SDS011;25188;51.958;5.842;2023-03-01T11:58:43;4.38;;;1.73;;
39020;SDS011;25188;51.958;5.842;2023-03-01T12:06:59;3.83;;;1.60;;
39020;SDS011;25188;51.958;5.842;2023-03-01T12:17:39;4.15;;;2.33;;
39020;SDS011;25188;51.958;5.842;2023-03-01T12:20:32;6.55;;;2.72;;
39020;SDS011;25188;51.958;5.842;2023-03-01T12:25:45;3.50;;;2.05;;
39020;SDS011;25188;51.958;5.842;2023-03-01T12:38:49;3.85;;;2.15;;
39020;SDS011;25188;51.958;5.842;2023-03-01T12:46:37;3.72;;;1.40;;
39020;SDS011;25188;51.958;5.842;2023-03-01T12:49:17;3.65;;;2.08;;
39020;SDS011;25188;51.958;5.842;2023-03-01T12:51:56;5.03;;;2.15;;
39020;SDS011;25188;51.958;5.842;2023-03-01T12:54:40;3.50;;;1.70;;
39020;SDS011;25188;51.958;5.842;2023-03-01T12:57:09;6.30;;;1.90;;
39020;SDS011;25188;51.958;5.842;2023-03-01T13:03:00;4.55;;;1.55;;
39020;SDS011;25188;51.958;5.842;2023-03-01T13:10:58;3.15;;;1.70;;
39020;SDS011;25188;51.958;5.842;2023-03-01T13:13:28;3.38;;;1.80;;
39020;SDS011;25188;51.958;5.842;2023-03-01T13:15:54;3.40;;;2.03;;
39020;SDS011;25188;51.958;5.842;2023-03-01T13:20:54;3.63;;;1.67;;
39020;SDS011;25188;51.958;5.842;2023-03-01T13:26:10;4.25;;;1.60;;
39020;SDS011;25188;51.958;5.842;2023-03-01T13:28:52;4.53;;;1.70;;
39020;SDS011;25188;51.958;5.842;2023-03-01T13:33:55;6.20;;;2.08;;
39020;SDS011;25188;51.958;5.842;2023-03-01T13:49:43;4.78;;;2.17;;
39020;SDS011;25188;51.958;5.842;2023-03-01T13:52:29;3.88;;;1.92;;
39020;SDS011;25188;51.958;5.842;2023-03-01T13:55:05;4.90;;;2.13;;
39020;SDS011;25188;51.958;5.842;2023-03-01T13:57:53;4.72;;;1.58;;
39020;SDS011;25188;51.958;5.842;2023-03-01T14:00:34;10.30;;;2.15;;
39020;SDS011;25188;51.958;5.842;2023-03-01T14:03:12;3.53;;;2.00;;
39020;SDS011;25188;51.958;5.842;2023-03-01T14:05:56;4.70;;;1.95;;
39020;SDS011;25188;51.958;5.842;2023-03-01T14:08:45;6.32;;;2.03;;
39020;SDS011;25188;51.958;5.842;2023-03-01T14:19:21;6.45;;;2.17;;
39020;SDS011;25188;51.958;5.842;2023-03-01T14:24:39;3.88;;;1.83;;
39020;SDS011;25188;51.958;5.842;2023-03-01T14:27:12;5.78;;;2.25;;
39020;SDS011;25188;51.958;5.842;2023-03-01T14:29:39;4.38;;;2.10;;
39020;SDS011;25188;51.958;5.842;2023-03-01T14:32:38;6.97;;;2.78;;
39020;SDS011;25188;51.958;5.842;2023-03-01T14:34:58;5.68;;;3.13;;
39020;SDS011;25188;51.958;5.842;2023-03-01T14:37:33;5.80;;;2.72;;
39020;SDS011;25188;51.958;5.842;2023-03-01T14:40:01;5.30;;;2.90;;
39020;SDS011;25188;51.958;5.842;2023-03-01T14:42:34;5.60;;;2.75;;
39020;SDS011;25188;51.958;5.842;2023-03-01T14:45:13;4.95;;;2.65;;
39020;SDS011;25188;51.958;5.842;2023-03-01T14:47:43;4.15;;;2.42;;
39020;SDS011;25188;51.958;5.842;2023-03-01T14:50:24;6.38;;;2.80;;
39020;SDS011;25188;51.958;5.842;2023-03-01T14:52:54;4.38;;;2.30;;
39020;SDS011;25188;51.958;5.842;2023-03-01T14:55:41;5.47;;;2.65;;
39020;SDS011;25188;51.958;5.842;2023-03-01T14:58:12;7.15;;;2.50;;
39020;SDS011;25188;51.958;5.842;2023-03-01T15:00:43;3.80;;;2.20;;
39020;SDS011;25188;51.958;5.842;2023-03-01T15:03:18;5.78;;;2.85;;
39020;SDS011;25188;51.958;5.842;2023-03-01T15:06:00;5.60;;;2.20;;
39020;SDS011;25188;51.958;5.842;2023-03-01T15:08:28;6.65;;;2.47;;
39020;SDS011;25188;51.958;5.842;2023-03-01T15:13:39;4.15;;;2.25;;
39020;SDS011;25188;51.958;5.842;2023-03-01T15:16:07;6.25;;;2.72;;
39020;SDS011;25188;51.958;5.842;2023-03-01T15:18:33;4.72;;;2.38;;
39020;SDS011;25188;51.958;5.842;2023-03-01T15:21:08;5.28;;;2.25;;
39020;SDS011;25188;51.958;5.842;2023-03-01T15:23:40;4.93;;;2.33;;
39020;SDS011;25188;51.958;5.842;2023-03-01T15:26:16;4.28;;;2.08;;
39020;SDS011;25188;51.958;5.842;2023-03-01T15:28:57;5.18;;;2.40;;
39020;SDS011;25188;51.958;5.842;2023-03-01T15:31:25;4.18;;;2.13;;
39020;SDS011;25188;51.958;5.842;2023-03-01T15:34:07;4.10;;;2.28;;
39020;SDS011;25188;51.958;5.842;2023-03-01T15:36:47;4.28;;;2.03;;
39020;SDS011;25188;51.958;5.842;2023-03-01T15:39:27;4.30;;;1.85;;
39020;SDS011;25188;51.958;5.842;2023-03-01T15:42:05;4.50;;;2.33;;
39020;SDS011;25188;51.958;5.842;2023-03-01T15:44:50;7.25;;;2.67;;
39020;SDS011;25188;51.958;5.842;2023-03-01T15:47:40;6.30;;;2.33;;
39020;SDS011;25188;51.958;5.842;2023-03-01T15:50:15;4.82;;;2.00;;
39020;SDS011;25188;51.958;5.842;2023-03-01T15:52:57;4.72;;;2.00;;
39020;SDS011;25188;51.958;5.842;2023-03-01T15:55:28;5.22;;;1.90;;
39020;SDS011;25188;51.958;5.842;2023-03-01T15:58:00;4.68;;;1.92;;
39020;SDS011;25188;51.958;5.842;2023-03-01T16:00:37;4.40;;;2.10;;
39020;SDS011;25188;51.958;5.842;2023-03-01T16:03:04;5.57;;;2.10;;
39020;SDS011;25188;51.958;5.842;2023-03-01T16:05:34;5.40;;;2.40;;
39020;SDS011;25188;51.958;5.842;2023-03-01T16:08:01;3.58;;;1.70;;
39020;SDS011;25188;51.958;5.842;2023-03-01T16:10:27;3.67;;;1.92;;
39020;SDS011;25188;51.958;5.842;2023-03-01T16:12:53;4.25;;;1.90;;
39020;SDS011;25188;51.958;5.842;2023-03-01T16:17:46;3.83;;;1.67;;
39020;SDS011;25188;51.958;5.842;2023-03-01T16:20:12;5.57;;;2.00;;
39020;SDS011;25188;51.958;5.842;2023-03-01T16:22:41;7.80;;;2.25;;
39020;SDS011;25188;51.958;5.842;2023-03-01T16:25:08;5.25;;;2.05;;
39020;SDS011;25188;51.958;5.842;2023-03-01T16:27:35;4.97;;;2.22;;
39020;SDS011;25188;51.958;5.842;2023-03-01T16:30:00;5.68;;;2.50;;
39020;SDS011;25188;51.958;5.842;2023-03-01T16:32:26;4.90;;;2.22;;
39020;SDS011;25188;51.958;5.842;2023-03-01T16:34:51;6.88;;;2.88;;
39020;SDS011;25188;51.958;5.842;2023-03-01T16:37:17;5.72;;;2.83;;
39020;SDS011;25188;51.958;5.842;2023-03-01T16:39:44;6.78;;;2.55;;
39020;SDS011;25188;51.958;5.842;2023-03-01T16:42:09;5.20;;;1.85;;
39020;SDS011;25188;51.958;5.842;2023-03-01T16:44:35;6.55;;;2.22;;
39020;SDS011;25188;51.958;5.842;2023-03-01T16:47:01;6.45;;;2.13;;
39020;SDS011;25188;51.958;5.842;2023-03-01T16:49:26;5.30;;;2.10;;
39020;SDS011;25188;51.958;5.842;2023-03-01T16:51:53;6.57;;;2.28;;
39020;SDS011;25188;51.958;5.842;2023-03-01T16:54:19;4.95;;;2.03;;
39020;SDS011;25188;51.958;5.842;2023-03-01T16:56:44;6.15;;;2.75;;
39020;SDS011;25188;51.958;5.842;2023-03-01T16:59:10;4.95;;;2.22;;
39020;SDS011;25188;51.958;5.842;2023-03-01T17:01:36;5.63;;;2.00;;
39020;SDS011;25188;51.958;5.842;2023-03-01T17:04:06;6.23;;;2.70;;
39020;SDS011;25188;51.958;5.842;2023-03-01T17:06:35;6.03;;;2.17;;
39020;SDS011;25188;51.958;5.842;2023-03-01T17:09:00;4.50;;;1.90;;